createdAt,value
2022-12-12T00:02:11.792Z,9.20
2022-12-12T00:05:03.724Z,9.80
2022-12-12T00:07:53.493Z,10.60
2022-12-12T00:10:43.304Z,10.70
2022-12-12T00:13:34.646Z,10.03
2022-12-12T00:16:25.122Z,11.40
2022-12-12T00:19:14.541Z,10.00
2022-12-12T00:22:03.624Z,8.63
2022-12-12T00:24:52.936Z,9.67
2022-12-12T00:27:42.694Z,8.83
2022-12-12T00:30:34.478Z,9.30
2022-12-12T00:33:24.356Z,10.13
2022-12-12T00:36:13.727Z,8.63
2022-12-12T00:39:02.880Z,9.77
2022-12-12T00:41:51.798Z,9.13
2022-12-12T00:44:41.394Z,9.90
2022-12-12T00:47:32.327Z,9.57
2022-12-12T00:50:21.951Z,9.40
2022-12-12T00:53:11.731Z,9.20
2022-12-12T00:56:01.290Z,8.93
2022-12-12T00:58:51.598Z,9.17
2022-12-12T01:01:41.029Z,9.17
2022-12-12T01:04:32.015Z,10.63
2022-12-12T01:07:21.126Z,8.57
2022-12-12T01:10:11.912Z,9.50
2022-12-12T01:13:01.018Z,9.70
2022-12-12T01:15:50.602Z,9.23
2022-12-12T01:18:40.003Z,8.80
2022-12-12T01:21:31.244Z,9.40
2022-12-12T01:24:20.542Z,8.80
2022-12-12T01:27:09.977Z,9.80
2022-12-12T01:30:01.939Z,10.77
2022-12-12T01:32:51.355Z,9.73
2022-12-12T01:35:41.071Z,9.57
2022-12-12T01:38:32.025Z,10.37
2022-12-12T01:41:21.770Z,10.43
2022-12-12T01:44:40.674Z,10.53
2022-12-12T01:47:30.081Z,9.10
2022-12-12T01:50:19.332Z,9.53
2022-12-12T01:53:09.160Z,8.67
2022-12-12T01:56:02.653Z,9.50
2022-12-12T01:58:54.291Z,7.90
2022-12-12T02:01:44.187Z,8.50
2022-12-12T02:04:33.761Z,8.53
2022-12-12T02:07:22.810Z,8.70
2022-12-12T02:10:13.489Z,8.27
2022-12-12T02:13:08.080Z,7.80
2022-12-12T02:16:05.488Z,7.77
2022-12-12T02:18:58.028Z,8.97
2022-12-12T02:21:52.987Z,9.77
2022-12-12T02:25:12.487Z,9.07
2022-12-12T02:28:18.035Z,8.73
2022-12-12T02:31:15.523Z,7.57
2022-12-12T02:34:10.045Z,9.33
2022-12-12T02:37:04.480Z,7.90
2022-12-12T02:40:03.085Z,7.80
2022-12-12T02:43:00.279Z,7.27
2022-12-12T02:45:52.995Z,6.60
2022-12-12T02:48:51.102Z,6.30
2022-12-12T02:51:41.514Z,6.10
2022-12-12T02:54:30.424Z,6.83
2022-12-12T02:57:22.873Z,7.00
2022-12-12T03:00:14.775Z,6.67
2022-12-12T03:03:34.626Z,6.30
2022-12-12T03:06:54.532Z,6.50
2022-12-12T03:10:01.343Z,5.80
2022-12-12T03:13:00.718Z,5.93
2022-12-12T03:15:58.617Z,5.60
2022-12-12T03:18:59.476Z,5.97
2022-12-12T03:21:57.125Z,6.40
2022-12-12T03:24:52.045Z,5.90
2022-12-12T03:27:46.993Z,5.87
2022-12-12T03:30:40.604Z,5.83
2022-12-12T03:33:35.399Z,6.07
2022-12-12T03:36:28.358Z,5.67
2022-12-12T03:39:25.480Z,6.07
2022-12-12T03:42:20.007Z,6.07
2022-12-12T03:45:15.015Z,6.80
2022-12-12T03:48:11.632Z,6.03
2022-12-12T03:51:05.299Z,5.57
2022-12-12T03:54:00.893Z,6.17
2022-12-12T03:56:56.490Z,5.77
2022-12-12T03:59:50.131Z,5.63
2022-12-12T04:02:45.162Z,5.27
2022-12-12T04:06:01.773Z,6.00
2022-12-12T04:09:09.169Z,5.10
2022-12-12T04:12:24.232Z,5.80
2022-12-12T04:15:54.110Z,4.77
2022-12-12T04:18:50.782Z,5.33
2022-12-12T04:22:01.870Z,5.03
2022-12-12T04:24:59.399Z,4.70
2022-12-12T04:27:54.002Z,4.80
2022-12-12T04:30:43.406Z,5.10
2022-12-12T04:33:40.674Z,5.13
2022-12-12T04:36:33.420Z,5.67
2022-12-12T04:39:24.402Z,5.03
2022-12-12T04:42:19.198Z,4.77
2022-12-12T04:45:15.579Z,4.77
2022-12-12T04:48:07.984Z,4.90
2022-12-12T04:50:59.686Z,4.83
2022-12-12T04:53:53.935Z,4.53
2022-12-12T04:56:47.433Z,4.80
2022-12-12T04:59:38.103Z,4.73
2022-12-12T05:02:41.436Z,5.13
2022-12-12T05:05:34.336Z,4.83
2022-12-12T05:08:27.902Z,5.00
2022-12-12T05:11:18.878Z,5.60
2022-12-12T05:14:10.284Z,6.10
2022-12-12T05:17:04.531Z,5.97
2022-12-12T05:19:55.426Z,6.70
2022-12-12T05:22:45.054Z,9.95
2022-12-12T05:25:34.812Z,7.77
2022-12-12T05:28:24.233Z,8.50
2022-12-12T05:31:13.612Z,8.23
2022-12-12T05:34:03.245Z,7.73
2022-12-12T05:36:53.862Z,7.73
2022-12-12T05:39:43.503Z,6.90
2022-12-12T05:42:32.491Z,7.70
2022-12-12T05:45:21.599Z,7.37
2022-12-12T05:48:11.021Z,7.33
2022-12-12T05:51:01.550Z,7.97
2022-12-12T05:53:52.459Z,8.90
2022-12-12T05:56:41.976Z,8.00
2022-12-12T05:59:32.128Z,8.97
2022-12-12T06:02:21.082Z,9.40
2022-12-12T06:05:11.151Z,8.80
2022-12-12T06:08:00.930Z,9.27
2022-12-12T06:10:51.847Z,9.00
2022-12-12T06:13:41.413Z,10.33
2022-12-12T06:16:30.652Z,10.93
2022-12-12T06:19:20.618Z,10.53
2022-12-12T06:22:09.938Z,10.27
2022-12-12T06:24:59.416Z,9.80
2022-12-12T06:27:50.531Z,10.00
2022-12-12T06:30:39.927Z,10.13
2022-12-12T06:33:29.487Z,10.60
2022-12-12T06:36:24.539Z,10.17
2022-12-12T06:39:13.919Z,10.10
2022-12-12T06:42:03.477Z,6.80
2022-12-12T06:44:54.686Z,10.53
2022-12-12T06:47:43.499Z,9.67
2022-12-12T06:50:33.161Z,10.37
2022-12-12T06:53:22.321Z,9.13
2022-12-12T06:56:14.249Z,10.07
2022-12-12T06:59:03.896Z,10.60
2022-12-12T07:01:56.904Z,11.10
2022-12-12T07:04:46.074Z,10.17
2022-12-12T07:07:35.317Z,9.27
2022-12-12T07:10:24.830Z,9.90
2022-12-12T07:13:14.427Z,10.20
2022-12-12T07:16:04.081Z,10.00
2022-12-12T07:18:55.091Z,10.80
2022-12-12T07:21:44.532Z,10.27
2022-12-12T07:24:33.710Z,11.30
2022-12-12T07:27:23.862Z,11.47
2022-12-12T07:30:14.382Z,11.97
2022-12-12T07:33:04.289Z,12.27
2022-12-12T07:36:00.154Z,13.07
2022-12-12T07:38:49.259Z,12.30
2022-12-12T07:41:40.872Z,13.90
2022-12-12T07:44:30.091Z,13.80
2022-12-12T07:47:19.663Z,11.93
2022-12-12T07:50:10.037Z,13.13
2022-12-12T07:53:01.793Z,13.20
2022-12-12T07:55:51.097Z,14.83
2022-12-12T07:58:40.480Z,13.67
2022-12-12T08:01:30.876Z,13.97
2022-12-12T08:04:20.183Z,14.27
2022-12-12T08:07:09.870Z,12.97
2022-12-12T08:10:00.727Z,11.83
2022-12-12T08:12:50.157Z,11.50
2022-12-12T08:15:38.983Z,13.50
2022-12-12T08:18:28.226Z,12.70
2022-12-12T08:21:25.309Z,13.17
2022-12-12T08:24:17.676Z,13.40
2022-12-12T08:27:15.200Z,14.20
2022-12-12T08:30:06.143Z,14.57
2022-12-12T08:32:55.921Z,14.83
2022-12-12T08:35:45.824Z,15.37
2022-12-12T08:38:35.358Z,18.97
2022-12-12T08:41:25.506Z,17.53
2022-12-12T08:44:17.755Z,18.10
2022-12-12T08:47:07.183Z,15.50
2022-12-12T08:49:56.772Z,16.47
2022-12-12T08:52:45.723Z,15.77
2022-12-12T08:55:36.163Z,18.37
2022-12-12T08:58:25.271Z,17.90
2022-12-12T09:01:17.593Z,17.40
2022-12-12T09:04:06.448Z,17.07
2022-12-12T09:06:56.274Z,15.57
2022-12-12T09:09:45.584Z,17.57
2022-12-12T09:12:41.304Z,16.07
2022-12-12T09:15:31.053Z,17.37
2022-12-12T09:18:21.913Z,16.50
2022-12-12T09:21:11.212Z,17.57
2022-12-12T09:24:02.972Z,16.53
2022-12-12T09:26:52.103Z,16.07
2022-12-12T09:29:41.303Z,15.83
2022-12-12T09:32:30.790Z,16.87
2022-12-12T09:35:21.887Z,15.33
2022-12-12T09:38:14.607Z,15.80
2022-12-12T09:41:05.911Z,17.30
2022-12-12T09:43:58.584Z,15.93
2022-12-12T09:46:50.503Z,16.93
2022-12-12T09:49:47.012Z,18.33
2022-12-12T09:52:39.513Z,15.97
2022-12-12T09:55:37.723Z,17.20
2022-12-12T09:58:31.662Z,15.00
2022-12-12T10:01:27.309Z,16.50
2022-12-12T10:04:24.982Z,16.00
2022-12-12T10:07:21.796Z,15.73
2022-12-12T10:10:20.714Z,15.83
2022-12-12T10:13:17.231Z,16.73
2022-12-12T10:16:09.878Z,16.53
2022-12-12T10:19:08.819Z,17.57
2022-12-12T10:22:02.940Z,16.50
2022-12-12T10:24:56.315Z,17.60
2022-12-12T10:27:46.935Z,16.20
2022-12-12T10:30:45.055Z,18.93
2022-12-12T10:33:47.436Z,18.17
2022-12-12T10:36:52.368Z,17.83
2022-12-12T10:39:49.790Z,16.63
2022-12-12T10:42:47.583Z,16.47
2022-12-12T10:45:55.326Z,17.60
2022-12-12T10:48:46.472Z,17.03
2022-12-12T10:51:35.562Z,16.07
2022-12-12T10:54:28.237Z,15.87
2022-12-12T10:57:24.258Z,15.20
2022-12-12T11:00:19.767Z,14.20
2022-12-12T11:03:22.922Z,14.83
2022-12-12T11:06:16.603Z,12.77
2022-12-12T11:09:16.221Z,12.70
2022-12-12T11:12:13.803Z,14.63
2022-12-12T11:15:07.511Z,13.47
2022-12-12T11:18:04.283Z,15.50
2022-12-12T11:21:06.083Z,15.10
2022-12-12T11:23:57.805Z,13.90
2022-12-12T11:26:48.975Z,12.77
2022-12-12T11:29:44.447Z,12.67
2022-12-12T11:32:34.645Z,14.30
2022-12-12T11:35:27.257Z,13.50
2022-12-12T11:38:21.893Z,14.20
2022-12-12T11:41:12.936Z,12.13
2022-12-12T11:44:02.435Z,12.50
2022-12-12T11:46:51.559Z,12.13
2022-12-12T11:49:48.204Z,13.43
2022-12-12T11:52:37.774Z,12.63
2022-12-12T11:55:39.385Z,12.10
2022-12-12T11:58:33.467Z,11.93
2022-12-12T12:01:32.762Z,11.67
2022-12-12T12:04:34.766Z,11.70
2022-12-12T12:07:45.746Z,11.60
2022-12-12T12:10:50.231Z,12.03
2022-12-12T12:14:02.937Z,11.70
2022-12-12T12:16:59.086Z,12.73
2022-12-12T12:19:52.809Z,13.47
2022-12-12T12:22:54.087Z,12.83
2022-12-12T12:25:52.211Z,13.03
2022-12-12T12:29:31.660Z,13.13
2022-12-12T12:32:28.528Z,13.00
2022-12-12T12:35:23.961Z,12.37
2022-12-12T12:38:18.940Z,12.57
2022-12-12T12:41:18.804Z,12.47
2022-12-12T12:44:14.692Z,13.17
2022-12-12T12:47:06.391Z,12.47
2022-12-12T12:49:57.076Z,12.93
2022-12-12T12:52:54.166Z,13.30
2022-12-12T12:55:49.335Z,12.00
2022-12-12T12:58:45.837Z,13.33
2022-12-12T13:01:40.703Z,12.03
2022-12-12T13:04:31.903Z,12.17
2022-12-12T13:07:24.927Z,12.33
2022-12-12T13:10:19.897Z,12.97
2022-12-12T13:13:13.867Z,12.53
2022-12-12T13:16:07.318Z,11.67
2022-12-12T13:19:03.649Z,12.43
2022-12-12T13:21:55.085Z,11.97
2022-12-12T13:24:46.794Z,13.37
2022-12-12T13:27:38.995Z,12.73
2022-12-12T13:30:30.436Z,13.07
2022-12-12T13:33:31.073Z,13.47
2022-12-12T13:36:29.298Z,13.63
2022-12-12T13:39:28.818Z,13.93
2022-12-12T13:42:17.709Z,13.83
2022-12-12T13:45:36.402Z,14.10
2022-12-12T13:48:54.127Z,14.77
2022-12-12T13:51:43.946Z,14.57
2022-12-12T13:54:49.826Z,14.93
2022-12-12T13:58:00.161Z,15.03
2022-12-12T14:00:50.329Z,14.83
2022-12-12T14:03:40.348Z,14.00
2022-12-12T14:06:31.735Z,15.00
2022-12-12T14:09:31.235Z,14.47
2022-12-12T14:12:34.870Z,14.93
2022-12-12T14:15:29.342Z,14.37
2022-12-12T14:18:25.835Z,15.50
2022-12-12T14:21:19.168Z,15.73
2022-12-12T14:24:48.553Z,14.53
2022-12-12T14:28:03.863Z,15.80
2022-12-12T14:31:13.377Z,15.13
2022-12-12T14:34:17.953Z,14.57
2022-12-12T14:37:49.837Z,14.77
2022-12-12T14:40:46.998Z,14.70
2022-12-12T14:43:38.353Z,15.07
2022-12-12T14:46:27.271Z,15.40
2022-12-12T14:49:18.522Z,15.23
2022-12-12T14:52:08.156Z,16.23
2022-12-12T14:54:57.849Z,15.80
2022-12-12T14:57:50.552Z,15.13
2022-12-12T15:00:48.367Z,15.97
2022-12-12T15:03:41.036Z,14.97
2022-12-12T15:06:33.529Z,14.60
2022-12-12T15:09:29.594Z,15.00
2022-12-12T15:12:21.187Z,15.07
2022-12-12T15:15:26.771Z,16.27
2022-12-12T15:18:21.679Z,14.90
2022-12-12T15:21:10.680Z,15.57
2022-12-12T15:23:59.948Z,17.60
2022-12-12T15:26:50.109Z,15.80
2022-12-12T15:29:40.053Z,14.80
2022-12-12T15:32:31.142Z,15.00
2022-12-12T15:35:23.067Z,16.37
2022-12-12T15:38:13.761Z,14.63
2022-12-12T15:41:12.733Z,15.90
2022-12-12T15:44:04.903Z,14.83
2022-12-12T15:46:54.467Z,15.70
2022-12-12T15:49:46.497Z,15.10
2022-12-12T15:52:35.773Z,15.03
2022-12-12T15:55:25.171Z,15.57
2022-12-12T15:58:28.988Z,15.13
2022-12-12T16:01:21.027Z,16.57
2022-12-12T16:04:24.381Z,15.93
2022-12-12T16:07:22.723Z,15.27
2022-12-12T16:10:22.469Z,15.17
2022-12-12T16:13:24.299Z,16.57
2022-12-12T16:16:46.130Z,15.27
2022-12-12T16:19:39.426Z,16.13
2022-12-12T16:22:35.591Z,16.63
2022-12-12T16:25:26.149Z,16.17
2022-12-12T16:28:24.710Z,15.60
2022-12-12T16:31:17.725Z,16.83
2022-12-12T16:34:07.124Z,16.07
2022-12-12T16:36:55.965Z,15.37
2022-12-12T16:39:46.766Z,17.07
2022-12-12T16:42:37.896Z,17.17
2022-12-12T16:45:27.611Z,15.83
2022-12-12T16:48:17.366Z,15.73
2022-12-12T16:51:07.782Z,14.37
2022-12-12T16:53:57.263Z,16.67
2022-12-12T16:56:52.738Z,16.70
2022-12-12T16:59:42.149Z,15.93
2022-12-12T17:02:33.089Z,16.97
2022-12-12T17:05:24.517Z,16.90
2022-12-12T17:08:15.434Z,15.80
2022-12-12T17:11:10.233Z,17.70
2022-12-12T17:14:02.464Z,17.20
2022-12-12T17:16:51.689Z,17.43
2022-12-12T17:19:40.901Z,16.53
2022-12-12T17:22:31.159Z,18.40
2022-12-12T17:25:22.211Z,18.23
2022-12-12T17:28:12.318Z,18.27
2022-12-12T17:31:03.411Z,17.10
2022-12-12T17:33:52.750Z,17.40
2022-12-12T17:36:42.121Z,17.63
2022-12-12T17:39:31.679Z,17.63
2022-12-12T17:42:21.422Z,19.67
2022-12-12T17:45:12.761Z,18.50
2022-12-12T17:48:04.973Z,18.57
2022-12-12T17:50:59.086Z,18.53
2022-12-12T17:53:51.092Z,18.50
2022-12-12T17:56:41.253Z,18.67
2022-12-12T17:59:30.066Z,21.47
2022-12-12T18:02:19.406Z,18.57
2022-12-12T18:05:12.427Z,24.20
2022-12-12T18:08:01.438Z,20.77
2022-12-12T18:10:51.142Z,19.07
2022-12-12T18:13:40.821Z,19.40
2022-12-12T18:16:32.436Z,20.40
2022-12-12T18:19:22.621Z,28.43
2022-12-12T18:22:13.617Z,28.70
2022-12-12T18:25:03.190Z,19.83
2022-12-12T18:27:52.871Z,19.77
2022-12-12T18:30:41.602Z,16.57
2022-12-12T18:33:30.568Z,19.00
2022-12-12T18:36:20.988Z,21.13
2022-12-12T18:39:13.226Z,18.97
2022-12-12T18:42:02.035Z,19.57
2022-12-12T18:44:51.272Z,18.97
2022-12-12T18:47:40.487Z,20.03
2022-12-12T18:50:30.477Z,19.77
2022-12-12T18:53:19.807Z,19.07
2022-12-12T18:56:12.918Z,18.93
2022-12-12T18:59:03.312Z,18.90
2022-12-12T19:01:53.334Z,19.20
2022-12-12T19:04:45.080Z,19.47
2022-12-12T19:07:34.124Z,19.13
2022-12-12T19:10:23.144Z,18.20
2022-12-12T19:13:14.539Z,19.27
2022-12-12T19:16:06.593Z,20.40
2022-12-12T19:18:56.433Z,19.50
2022-12-12T19:21:45.854Z,21.03
2022-12-12T19:24:36.738Z,22.73
2022-12-12T19:27:25.646Z,21.63
2022-12-12T19:30:17.374Z,21.50
2022-12-12T19:33:06.824Z,20.67
2022-12-12T19:35:55.839Z,23.67
2022-12-12T19:38:45.613Z,21.30
2022-12-12T19:41:35.324Z,23.77
2022-12-12T19:44:25.198Z,25.37
2022-12-12T19:47:16.934Z,26.73
2022-12-12T19:50:07.035Z,26.80
2022-12-12T19:52:56.323Z,25.10
2022-12-12T19:55:48.311Z,29.03
2022-12-12T19:58:38.873Z,28.80
2022-12-12T20:01:30.591Z,26.30
2022-12-12T20:04:23.224Z,26.67
2022-12-12T20:07:12.713Z,26.83
2022-12-12T20:10:01.792Z,26.83
2022-12-12T20:12:58.168Z,27.13
2022-12-12T20:15:47.909Z,28.40
2022-12-12T20:18:37.441Z,27.40
2022-12-12T20:21:59.739Z,27.60
2022-12-12T20:24:38.692Z,29.00
2022-12-12T20:27:30.001Z,27.60
2022-12-12T20:30:19.852Z,28.23
2022-12-12T20:33:09.429Z,24.93
2022-12-12T20:36:02.749Z,28.57
2022-12-12T20:38:52.870Z,29.10
2022-12-12T20:41:42.803Z,27.87
2022-12-12T20:44:31.782Z,27.93
2022-12-12T20:47:22.560Z,29.10
2022-12-12T20:50:13.607Z,29.67
2022-12-12T20:53:02.679Z,28.50
2022-12-12T20:55:53.710Z,30.40
2022-12-12T20:58:43.102Z,30.77
2022-12-12T21:01:34.729Z,31.37
2022-12-12T21:04:24.482Z,29.50
2022-12-12T21:07:13.594Z,29.13
2022-12-12T21:10:02.751Z,31.20
2022-12-12T21:12:52.975Z,31.60
2022-12-12T21:15:42.374Z,30.70
2022-12-12T21:18:32.623Z,31.23
2022-12-12T21:21:22.664Z,28.47
2022-12-12T21:24:13.214Z,31.57
2022-12-12T21:27:02.653Z,30.87
2022-12-12T21:29:53.404Z,32.67
2022-12-12T21:32:42.711Z,30.77
2022-12-12T21:35:32.142Z,30.20
2022-12-12T21:38:23.544Z,29.30
2022-12-12T21:41:15.166Z,30.67
2022-12-12T21:44:04.476Z,30.87
2022-12-12T21:46:55.034Z,28.70
2022-12-12T21:49:44.817Z,30.17
2022-12-12T21:52:34.188Z,30.47
2022-12-12T21:55:23.585Z,29.20
2022-12-12T21:58:12.880Z,28.33
2022-12-12T22:01:08.872Z,27.67
2022-12-12T22:03:59.585Z,28.93
2022-12-12T22:06:48.660Z,27.13
2022-12-12T22:09:37.939Z,25.73
2022-12-12T22:12:27.906Z,26.67
2022-12-12T22:15:17.516Z,24.03
2022-12-12T22:18:07.095Z,26.40
2022-12-12T22:20:58.190Z,21.80
2022-12-12T22:23:48.218Z,21.07
2022-12-12T22:26:38.717Z,21.97
2022-12-12T22:29:27.928Z,21.03
2022-12-12T22:32:16.958Z,19.73
2022-12-12T22:35:06.474Z,18.67
2022-12-12T22:37:57.146Z,18.80
2022-12-12T22:40:55.827Z,19.53
2022-12-12T22:43:45.173Z,18.30
2022-12-12T22:46:39.217Z,18.33
2022-12-12T22:49:31.564Z,20.00
2022-12-12T22:52:20.930Z,18.73
2022-12-12T22:55:12.443Z,19.73
2022-12-12T22:58:01.969Z,20.13
2022-12-12T23:00:51.272Z,21.30
2022-12-12T23:03:40.951Z,19.73
2022-12-12T23:06:31.507Z,20.57
2022-12-12T23:09:21.653Z,19.73
2022-12-12T23:12:12.316Z,20.27
2022-12-12T23:15:01.805Z,21.30
2022-12-12T23:17:51.561Z,21.90
2022-12-12T23:20:41.053Z,21.03
2022-12-12T23:23:32.181Z,20.70
2022-12-12T23:26:22.876Z,20.80
2022-12-12T23:29:16.383Z,22.13
2022-12-12T23:32:07.515Z,22.00
2022-12-12T23:34:57.378Z,22.07
2022-12-12T23:37:46.958Z,22.90
2022-12-12T23:40:36.731Z,22.17
2022-12-12T23:43:26.441Z,21.77
2022-12-12T23:46:29.361Z,22.40
2022-12-12T23:49:20.025Z,22.73
2022-12-12T23:52:09.598Z,24.63
2022-12-12T23:54:58.660Z,22.50
2022-12-12T23:57:48.131Z,23.63
